createdAt,value
2023-05-14T00:00:55.378Z,21.03
2023-05-14T00:03:24.002Z,21.03
2023-05-14T00:05:51.666Z,21.03
2023-05-14T00:08:17.978Z,21.02
2023-05-14T00:10:46.866Z,21.01
2023-05-14T00:13:13.193Z,21.01
2023-05-14T00:15:39.460Z,21.00
2023-05-14T00:18:05.790Z,21.00
2023-05-14T00:20:32.077Z,20.98
2023-05-14T00:22:58.380Z,20.98
2023-05-14T00:25:24.781Z,20.97
2023-05-14T00:27:53.122Z,20.97
2023-05-14T00:30:25.085Z,20.96
2023-05-14T00:32:51.531Z,20.96
2023-05-14T00:35:21.060Z,20.95
2023-05-14T00:37:48.932Z,20.95
2023-05-14T00:40:17.354Z,20.96
2023-05-14T00:42:45.967Z,20.95
2023-05-14T00:45:15.170Z,20.95
2023-05-14T00:47:42.772Z,20.93
2023-05-14T00:50:09.497Z,20.93
2023-05-14T00:52:38.914Z,20.93
2023-05-14T00:55:05.168Z,20.92
2023-05-14T00:57:35.114Z,20.91
2023-05-14T01:00:01.388Z,20.91
2023-05-14T01:02:30.637Z,20.91
2023-05-14T01:04:57.012Z,20.88
2023-05-14T01:07:28.062Z,20.90
2023-05-14T01:09:54.434Z,20.86
2023-05-14T01:12:20.690Z,20.87
2023-05-14T01:14:46.915Z,20.88
2023-05-14T01:17:13.149Z,20.85
2023-05-14T01:19:41.539Z,20.86
2023-05-14T01:22:09.769Z,20.85
2023-05-14T01:24:36.047Z,20.86
2023-05-14T01:27:02.366Z,20.83
2023-05-14T01:29:28.611Z,20.82
2023-05-14T01:31:54.909Z,20.82
2023-05-14T01:34:21.150Z,20.81
2023-05-14T01:36:49.243Z,20.80
2023-05-14T01:39:17.769Z,20.79
2023-05-14T01:41:46.370Z,20.77
2023-05-14T01:44:15.082Z,20.77
2023-05-14T01:46:41.366Z,20.77
2023-05-14T01:49:07.658Z,20.76
2023-05-14T01:51:33.898Z,20.75
2023-05-14T01:54:05.128Z,20.74
2023-05-14T01:56:34.170Z,20.72
2023-05-14T01:59:00.770Z,20.73
2023-05-14T02:01:27.068Z,20.73
2023-05-14T02:03:53.614Z,20.73
2023-05-14T02:06:19.952Z,20.72
2023-05-14T02:08:46.199Z,20.70
2023-05-14T02:11:16.756Z,20.70
2023-05-14T02:13:43.189Z,20.70
2023-05-14T02:16:10.743Z,20.69
2023-05-14T02:18:37.419Z,20.68
2023-05-14T02:21:04.790Z,20.68
2023-05-14T02:23:41.010Z,20.67
2023-05-14T02:26:09.600Z,20.66
2023-05-14T02:28:35.954Z,20.66
2023-05-14T02:31:02.248Z,20.64
2023-05-14T02:33:28.674Z,20.66
2023-05-14T02:35:55.141Z,20.61
2023-05-14T02:38:21.840Z,20.63
2023-05-14T02:40:48.082Z,20.63
2023-05-14T02:43:16.502Z,20.59
2023-05-14T02:45:42.792Z,20.63
2023-05-14T02:48:09.121Z,20.59
2023-05-14T02:50:37.292Z,20.58
2023-05-14T02:53:05.532Z,20.58
2023-05-14T02:55:35.758Z,20.58
2023-05-14T02:58:01.987Z,20.58
2023-05-14T03:00:29.933Z,20.57
2023-05-14T03:05:40.941Z,20.55
2023-05-14T03:08:07.178Z,20.56
2023-05-14T03:10:33.431Z,20.56
2023-05-14T03:13:04.638Z,20.54
2023-05-14T03:15:30.844Z,20.56
2023-05-14T03:17:57.138Z,20.55
2023-05-14T03:20:23.614Z,20.52
2023-05-14T03:22:49.967Z,20.53
2023-05-14T03:25:16.318Z,20.52
2023-05-14T03:27:42.545Z,20.52
2023-05-14T03:30:08.820Z,20.51
2023-05-14T03:32:35.177Z,20.50
2023-05-14T03:35:02.394Z,20.51
2023-05-14T03:37:30.751Z,20.49
2023-05-14T03:39:57.448Z,20.49
2023-05-14T03:42:23.696Z,20.48
2023-05-14T03:44:51.114Z,20.49
2023-05-14T03:47:17.373Z,20.49
2023-05-14T03:49:43.651Z,20.47
2023-05-14T03:52:10.104Z,20.47
2023-05-14T03:54:36.545Z,20.46
2023-05-14T03:57:02.780Z,20.46
2023-05-14T03:59:33.819Z,20.46
2023-05-14T04:02:00.035Z,20.43
2023-05-14T04:04:29.582Z,20.46
2023-05-14T04:06:55.937Z,20.44
2023-05-14T04:09:22.197Z,20.43
2023-05-14T04:11:48.428Z,20.45
2023-05-14T04:14:16.875Z,20.42
2023-05-14T04:16:44.578Z,20.42
2023-05-14T04:19:11.049Z,20.43
2023-05-14T04:21:37.387Z,20.41
2023-05-14T04:24:03.639Z,20.42
2023-05-14T04:26:30.462Z,20.40
2023-05-14T04:28:56.667Z,20.41
2023-05-14T04:31:26.485Z,20.41
2023-05-14T04:33:52.758Z,20.41
2023-05-14T04:36:19.054Z,20.40
2023-05-14T04:38:45.327Z,20.40
2023-05-14T04:41:11.929Z,20.39
2023-05-14T04:43:40.547Z,20.39
2023-05-14T04:46:07.302Z,20.39
2023-05-14T04:48:33.559Z,20.39
2023-05-14T04:51:06.830Z,20.39
2023-05-14T04:53:33.453Z,20.38
2023-05-14T04:55:59.745Z,20.37
2023-05-14T04:58:25.971Z,20.37
2023-05-14T05:00:52.254Z,20.39
2023-05-14T05:03:18.629Z,20.37
2023-05-14T05:05:44.946Z,20.38
2023-05-14T05:08:11.158Z,20.36
2023-05-14T05:10:37.435Z,20.38
2023-05-14T05:13:03.699Z,20.36
2023-05-14T05:15:29.918Z,20.35
2023-05-14T05:17:56.663Z,20.33
2023-05-14T05:20:23.099Z,20.33
2023-05-14T05:22:54.126Z,20.32
2023-05-14T05:25:20.341Z,20.31
2023-05-14T05:27:46.666Z,20.32
2023-05-14T05:30:13.783Z,20.30
2023-05-14T05:32:40.641Z,20.31
2023-05-14T05:35:08.087Z,20.34
2023-05-14T05:37:34.338Z,20.40
2023-05-14T05:40:00.598Z,20.34
2023-05-14T05:42:26.913Z,20.30
2023-05-14T05:44:53.141Z,20.22
2023-05-14T05:47:20.073Z,20.32
2023-05-14T05:49:47.639Z,20.20
2023-05-14T05:52:14.237Z,20.10
2023-05-14T05:54:44.919Z,20.17
2023-05-14T05:57:13.727Z,20.07
2023-05-14T05:59:39.993Z,20.12
2023-05-14T06:02:06.252Z,20.16
2023-05-14T06:04:32.531Z,20.14
2023-05-14T06:06:58.768Z,20.22
2023-05-14T06:09:26.760Z,20.13
2023-05-14T06:11:53.250Z,20.08
2023-05-14T06:14:19.520Z,20.07
2023-05-14T06:16:46.111Z,20.19
2023-05-14T06:19:16.041Z,20.10
2023-05-14T06:21:46.882Z,20.21
2023-05-14T06:24:16.658Z,20.13
2023-05-14T06:26:42.934Z,20.22
2023-05-14T06:29:09.195Z,20.13
2023-05-14T06:31:35.594Z,20.28
2023-05-14T06:34:01.979Z,20.21
2023-05-14T06:36:28.190Z,20.07
2023-05-14T06:38:54.466Z,20.13
2023-05-14T06:41:23.063Z,20.23
2023-05-14T06:43:49.475Z,20.20
2023-05-14T06:46:15.712Z,20.15
2023-05-14T06:48:42.008Z,20.18
2023-05-14T06:51:09.792Z,20.19
2023-05-14T06:53:36.043Z,20.22
2023-05-14T06:56:02.315Z,20.26
2023-05-14T06:58:29.802Z,20.29
2023-05-14T07:00:56.037Z,20.28
2023-05-14T07:03:22.300Z,20.33
2023-05-14T07:05:48.523Z,20.35
2023-05-14T07:08:14.732Z,20.34
2023-05-14T07:10:43.313Z,20.35
2023-05-14T07:13:12.351Z,20.33
2023-05-14T07:15:38.597Z,20.29
2023-05-14T07:18:04.849Z,20.30
2023-05-14T07:20:31.145Z,20.30
2023-05-14T07:22:57.398Z,20.32
2023-05-14T07:25:23.635Z,20.33
2023-05-14T07:27:49.864Z,20.35
2023-05-14T07:30:16.159Z,20.34
2023-05-14T07:32:42.906Z,20.34
2023-05-14T07:35:12.385Z,20.35
2023-05-14T07:37:38.613Z,20.35
2023-05-14T07:40:04.833Z,20.35
2023-05-14T07:42:36.396Z,20.36
2023-05-14T07:45:04.287Z,20.35
2023-05-14T07:47:30.765Z,20.35
2023-05-14T07:49:57.914Z,20.35
2023-05-14T07:52:24.153Z,20.34
2023-05-14T07:54:50.767Z,20.34
2023-05-14T07:57:17.110Z,20.34
2023-05-14T07:59:43.411Z,20.34
2023-05-14T08:02:09.717Z,20.34
2023-05-14T08:04:38.132Z,20.34
2023-05-14T08:07:05.119Z,20.32
2023-05-14T08:09:31.323Z,20.35
2023-05-14T08:11:58.127Z,20.33
2023-05-14T08:14:24.317Z,20.34
2023-05-14T08:16:50.612Z,20.33
2023-05-14T08:19:17.775Z,20.32
2023-05-14T08:21:44.086Z,20.30
2023-05-14T08:24:10.302Z,20.33
2023-05-14T08:26:36.562Z,20.34
2023-05-14T08:29:05.419Z,20.31
2023-05-14T08:31:31.957Z,20.34
2023-05-14T08:33:58.253Z,20.29
2023-05-14T08:36:24.470Z,20.29
2023-05-14T08:38:50.698Z,20.30
2023-05-14T08:41:16.942Z,20.30
2023-05-14T08:43:45.392Z,20.30
2023-05-14T08:46:11.649Z,20.28
2023-05-14T08:48:40.299Z,20.30
2023-05-14T08:51:06.565Z,20.30
2023-05-14T08:53:32.837Z,20.30
2023-05-14T08:56:00.037Z,20.29
2023-05-14T08:58:27.886Z,20.29
2023-05-14T09:00:54.111Z,20.29
2023-05-14T09:03:24.541Z,20.30
2023-05-14T09:05:50.850Z,20.29
2023-05-14T09:08:18.086Z,20.30
2023-05-14T09:10:47.990Z,20.30
2023-05-14T09:13:14.198Z,20.30
2023-05-14T09:15:40.837Z,20.32
2023-05-14T09:18:07.191Z,20.29
2023-05-14T09:20:34.203Z,20.29
2023-05-14T09:23:00.455Z,20.29
2023-05-14T09:25:26.880Z,20.28
2023-05-14T09:27:53.068Z,20.29
2023-05-14T09:30:21.000Z,20.28
2023-05-14T09:32:47.584Z,20.28
2023-05-14T09:35:16.338Z,20.28
2023-05-14T09:37:42.591Z,20.29
2023-05-14T09:40:08.802Z,20.26
2023-05-14T09:42:36.993Z,20.29
2023-05-14T09:45:04.324Z,20.27
2023-05-14T09:47:30.605Z,20.26
2023-05-14T09:49:56.868Z,20.25
2023-05-14T09:52:25.324Z,20.24
2023-05-14T09:54:52.173Z,20.25
2023-05-14T09:57:18.399Z,20.26
2023-05-14T09:59:44.611Z,20.26
2023-05-14T10:02:11.625Z,20.25
2023-05-14T10:04:38.013Z,20.26
2023-05-14T10:07:04.553Z,20.24
2023-05-14T10:09:30.792Z,20.25
2023-05-14T10:11:57.070Z,20.24
2023-05-14T10:14:23.334Z,20.23
2023-05-14T10:16:49.601Z,20.25
2023-05-14T10:19:15.903Z,20.23
2023-05-14T10:21:42.148Z,20.25
2023-05-14T10:24:08.391Z,20.25
2023-05-14T10:26:34.641Z,20.24
2023-05-14T10:29:00.841Z,20.21
2023-05-14T10:31:27.144Z,20.23
2023-05-14T10:33:53.475Z,20.23
2023-05-14T10:36:19.762Z,20.25
2023-05-14T10:38:45.957Z,20.23
2023-05-14T10:41:12.192Z,20.24
2023-05-14T10:43:38.455Z,20.23
2023-05-14T10:46:08.043Z,20.24
2023-05-14T10:48:34.283Z,20.23
2023-05-14T10:51:00.513Z,20.23
2023-05-14T10:53:28.338Z,20.24
2023-05-14T10:55:54.557Z,20.23
2023-05-14T10:58:21.549Z,20.24
2023-05-14T11:00:47.800Z,20.22
2023-05-14T11:03:14.060Z,20.24
2023-05-14T11:05:40.283Z,20.22
2023-05-14T11:08:06.515Z,20.23
2023-05-14T11:10:33.780Z,20.24
2023-05-14T11:13:02.424Z,20.25
2023-05-14T11:15:28.629Z,20.24
2023-05-14T11:17:54.891Z,20.25
2023-05-14T11:20:21.118Z,20.19
2023-05-14T11:22:50.971Z,20.22
2023-05-14T11:25:17.309Z,20.21
2023-05-14T11:27:44.616Z,20.24
2023-05-14T11:30:10.889Z,20.26
2023-05-14T11:32:42.092Z,20.20
2023-05-14T11:35:08.324Z,20.24
2023-05-14T11:37:34.598Z,20.26
2023-05-14T11:40:00.846Z,20.25
2023-05-14T11:42:27.093Z,20.28
2023-05-14T11:44:53.375Z,20.21
2023-05-14T11:47:19.597Z,20.27
2023-05-14T11:49:45.866Z,20.22
2023-05-14T11:52:12.139Z,20.25
2023-05-14T11:54:38.395Z,20.24
2023-05-14T11:57:04.605Z,20.27
2023-05-14T11:59:30.827Z,20.25
2023-05-14T12:01:58.237Z,20.27
2023-05-14T12:04:24.496Z,20.29
2023-05-14T12:06:50.723Z,20.27
2023-05-14T12:09:21.071Z,20.27
2023-05-14T12:11:47.306Z,20.29
2023-05-14T12:14:15.279Z,20.27
2023-05-14T12:16:41.646Z,20.27
2023-05-14T12:19:12.470Z,20.26
2023-05-14T12:21:38.730Z,20.28
2023-05-14T12:24:05.656Z,20.21
2023-05-14T12:26:31.935Z,20.27
2023-05-14T12:28:59.647Z,20.29
2023-05-14T12:31:26.272Z,20.26
2023-05-14T12:33:52.489Z,20.27
2023-05-14T12:36:21.906Z,20.29
2023-05-14T12:38:48.736Z,20.29
2023-05-14T12:41:15.463Z,20.29
2023-05-14T12:43:43.254Z,20.29
2023-05-14T12:46:09.486Z,20.29
2023-05-14T12:48:35.766Z,20.27
2023-05-14T12:51:02.963Z,20.29
2023-05-14T12:53:29.198Z,20.28
2023-05-14T12:55:55.442Z,20.30
2023-05-14T12:58:21.690Z,20.29
2023-05-14T13:00:48.044Z,20.29
2023-05-14T13:03:14.339Z,20.29
2023-05-14T13:05:40.609Z,20.29
2023-05-14T13:08:08.222Z,20.31
2023-05-14T13:10:34.441Z,20.29
2023-05-14T13:13:00.701Z,20.30
2023-05-14T13:15:26.994Z,20.28
2023-05-14T13:17:53.235Z,20.30
2023-05-14T13:20:19.485Z,20.29
2023-05-14T13:22:48.354Z,20.30
2023-05-14T13:25:14.615Z,20.29
2023-05-14T13:27:40.868Z,20.30
2023-05-14T13:30:07.072Z,20.29
2023-05-14T13:32:33.368Z,20.28
2023-05-14T13:34:59.655Z,20.29
2023-05-14T13:37:25.905Z,20.29
2023-05-14T13:39:52.130Z,20.30
2023-05-14T13:42:18.359Z,20.30
2023-05-14T13:44:45.901Z,20.28
2023-05-14T13:47:12.124Z,20.28
2023-05-14T13:49:38.390Z,20.27
2023-05-14T13:52:05.960Z,20.29
2023-05-14T13:54:32.165Z,20.28
2023-05-14T13:56:58.401Z,20.30
2023-05-14T13:59:24.727Z,20.29
2023-05-14T14:01:51.017Z,20.29
2023-05-14T14:04:17.267Z,20.29
2023-05-14T14:06:44.150Z,20.28
2023-05-14T14:09:10.402Z,20.28
2023-05-14T14:11:36.671Z,20.30
2023-05-14T14:14:02.899Z,20.27
2023-05-14T14:16:29.147Z,20.29
2023-05-14T14:18:58.586Z,20.28
2023-05-14T14:21:24.997Z,20.27
2023-05-14T14:23:53.594Z,20.25
2023-05-14T14:26:23.255Z,20.27
2023-05-14T14:28:49.483Z,20.28
2023-05-14T14:31:16.697Z,20.27
2023-05-14T14:33:44.693Z,20.27
2023-05-14T14:36:10.927Z,20.28
2023-05-14T14:38:37.150Z,20.26
2023-05-14T14:41:04.047Z,20.29
2023-05-14T14:43:33.018Z,20.28
2023-05-14T14:45:59.247Z,20.28
2023-05-14T14:48:27.876Z,20.28
2023-05-14T14:50:57.834Z,20.28
2023-05-14T14:53:28.824Z,20.29
2023-05-14T14:55:55.134Z,20.28
2023-05-14T14:58:21.401Z,20.28
2023-05-14T15:00:47.750Z,20.29
2023-05-14T15:03:15.442Z,20.28
2023-05-14T15:05:46.813Z,20.28
2023-05-14T15:08:13.011Z,20.29
2023-05-14T15:10:39.283Z,20.28
2023-05-14T15:13:05.493Z,20.28
2023-05-14T15:15:31.719Z,20.27
2023-05-14T15:17:58.011Z,20.27
2023-05-14T15:20:24.278Z,20.28
2023-05-14T15:22:50.518Z,20.28
2023-05-14T15:25:17.015Z,20.28
2023-05-14T15:27:43.738Z,20.28
2023-05-14T15:30:10.002Z,20.27
2023-05-14T15:32:36.320Z,20.28
2023-05-14T15:35:04.068Z,20.27
2023-05-14T15:37:31.619Z,20.29
2023-05-14T15:39:58.220Z,20.29
2023-05-14T15:42:24.470Z,20.28
2023-05-14T15:44:50.699Z,20.28
2023-05-14T15:47:17.001Z,20.27
2023-05-14T15:49:43.232Z,20.27
2023-05-14T15:52:09.455Z,20.26
2023-05-14T15:54:35.672Z,20.27
2023-05-14T15:57:04.536Z,20.26
2023-05-14T15:59:33.061Z,20.26
2023-05-14T16:01:59.339Z,20.27
2023-05-14T16:04:26.303Z,20.26
2023-05-14T16:06:52.606Z,20.27
2023-05-14T16:09:19.020Z,20.25
2023-05-14T16:11:45.231Z,20.26
2023-05-14T16:14:12.778Z,20.26
2023-05-14T16:16:39.345Z,20.27
2023-05-14T16:19:05.773Z,20.25
2023-05-14T16:21:34.169Z,20.26
2023-05-14T16:24:00.365Z,20.27
2023-05-14T16:26:26.626Z,20.26
2023-05-14T16:28:53.039Z,20.27
2023-05-14T16:31:19.282Z,20.28
2023-05-14T16:33:45.507Z,20.28
2023-05-14T16:36:11.753Z,20.28
2023-05-14T16:38:52.396Z,20.29
2023-05-14T16:41:26.944Z,20.29
2023-05-14T16:43:53.230Z,20.30
2023-05-14T16:46:19.476Z,20.31
2023-05-14T16:48:48.409Z,20.31
2023-05-14T16:51:15.267Z,20.31
2023-05-14T16:53:41.657Z,20.31
2023-05-14T16:56:08.911Z,20.33
2023-05-14T16:58:38.880Z,20.34
2023-05-14T17:01:10.768Z,20.34
2023-05-14T17:03:37.963Z,20.33
2023-05-14T17:06:04.210Z,20.33
2023-05-14T17:08:30.473Z,20.34
2023-05-14T17:10:58.455Z,20.34
2023-05-14T17:13:24.661Z,20.35
2023-05-14T17:15:50.929Z,20.35
2023-05-14T17:18:17.847Z,20.34
2023-05-14T17:20:44.131Z,20.35
2023-05-14T17:23:12.049Z,20.35
2023-05-14T17:25:38.374Z,20.35
2023-05-14T17:28:04.606Z,20.34
2023-05-14T17:30:30.794Z,20.35
2023-05-14T17:32:57.291Z,20.34
2023-05-14T17:35:23.805Z,20.36
2023-05-14T17:37:52.317Z,20.35
2023-05-14T17:40:18.552Z,20.35
2023-05-14T17:42:44.808Z,20.34
2023-05-14T17:45:11.016Z,20.36
2023-05-14T17:47:37.322Z,20.34
2023-05-14T17:50:04.543Z,20.35
2023-05-14T17:52:32.700Z,20.35
2023-05-14T17:55:00.194Z,20.35
2023-05-14T17:57:26.522Z,20.34
2023-05-14T17:59:52.825Z,20.35
2023-05-14T18:02:21.150Z,20.33
2023-05-14T18:04:47.544Z,20.34
2023-05-14T18:07:13.778Z,20.33
2023-05-14T18:09:40.033Z,20.34
2023-05-14T18:12:06.247Z,20.33
2023-05-14T18:14:32.526Z,20.34
2023-05-14T18:17:02.285Z,20.33
2023-05-14T18:19:28.535Z,20.33
2023-05-14T18:21:54.747Z,20.34
2023-05-14T18:24:21.077Z,20.34
2023-05-14T18:26:47.312Z,20.34
2023-05-14T18:29:14.868Z,20.35
2023-05-14T18:31:43.313Z,20.35
2023-05-14T18:34:09.644Z,20.36
2023-05-14T18:36:35.906Z,20.35
2023-05-14T18:39:02.127Z,20.35
2023-05-14T18:41:28.330Z,20.35
2023-05-14T18:43:54.553Z,20.36
2023-05-14T18:46:20.917Z,20.35
2023-05-14T18:48:47.198Z,20.35
2023-05-14T18:51:13.615Z,20.36
2023-05-14T18:53:43.325Z,20.35
2023-05-14T18:56:10.737Z,20.34
2023-05-14T18:58:38.668Z,20.33
2023-05-14T19:01:04.963Z,20.35
2023-05-14T19:03:33.744Z,20.33
2023-05-14T19:06:03.419Z,20.35
2023-05-14T19:08:32.713Z,20.33
2023-05-14T19:10:58.945Z,20.32
2023-05-14T19:13:25.464Z,20.33
2023-05-14T19:15:51.703Z,20.33
2023-05-14T19:18:20.557Z,20.33
2023-05-14T19:20:46.855Z,20.32
2023-05-14T19:23:15.248Z,20.32
2023-05-14T19:25:41.503Z,20.32
2023-05-14T19:28:08.551Z,20.32
2023-05-14T19:30:34.790Z,20.32
2023-05-14T19:33:01.541Z,20.31
2023-05-14T19:35:27.861Z,20.31
2023-05-14T19:37:54.196Z,20.30
2023-05-14T19:40:23.078Z,20.32
2023-05-14T19:42:49.374Z,20.33
2023-05-14T19:45:15.591Z,20.32
2023-05-14T19:47:41.872Z,20.32
2023-05-14T19:50:08.080Z,20.32
2023-05-14T19:52:34.324Z,20.30
2023-05-14T19:55:00.552Z,20.30
2023-05-14T19:57:27.855Z,20.32
2023-05-14T19:59:54.077Z,20.32
2023-05-14T20:02:20.325Z,20.32
2023-05-14T20:04:46.654Z,20.30
2023-05-14T20:07:12.881Z,20.28
2023-05-14T20:09:39.368Z,20.28
2023-05-14T20:12:05.612Z,20.27
2023-05-14T20:14:31.958Z,20.25
2023-05-14T20:16:58.228Z,20.24
2023-05-14T20:19:24.533Z,20.25
2023-05-14T20:21:50.900Z,20.24
2023-05-14T20:24:17.309Z,20.25
2023-05-14T20:26:43.630Z,20.26
2023-05-14T20:29:11.535Z,20.23
2023-05-14T20:31:37.752Z,20.24
2023-05-14T20:34:03.993Z,20.21
2023-05-14T20:36:30.267Z,20.24
2023-05-14T20:39:00.919Z,20.23
2023-05-14T20:41:27.356Z,20.21
2023-05-14T20:43:53.573Z,20.23
2023-05-14T20:46:21.905Z,20.22
2023-05-14T20:48:48.220Z,20.21
2023-05-14T20:51:14.744Z,20.20
2023-05-14T20:53:43.839Z,20.22
2023-05-14T20:56:10.093Z,20.21
2023-05-14T20:58:36.290Z,20.20
2023-05-14T21:01:02.754Z,20.20
2023-05-14T21:03:29.116Z,20.20
2023-05-14T21:06:00.293Z,20.19
2023-05-14T21:08:27.771Z,20.17
2023-05-14T21:10:53.993Z,20.17
2023-05-14T21:13:20.236Z,20.18
2023-05-14T21:15:46.459Z,20.19
2023-05-14T21:18:14.107Z,20.18
2023-05-14T21:20:40.403Z,20.17
2023-05-14T21:23:06.861Z,20.18
2023-05-14T21:25:34.202Z,20.17
2023-05-14T21:28:00.494Z,20.16
2023-05-14T21:30:26.772Z,20.17
2023-05-14T21:32:53.117Z,20.17
2023-05-14T21:35:22.895Z,20.16
2023-05-14T21:37:50.750Z,20.17
2023-05-14T21:40:16.979Z,20.15
2023-05-14T21:42:43.194Z,20.16
2023-05-14T21:45:12.076Z,20.14
2023-05-14T21:47:38.497Z,20.15
2023-05-14T21:50:08.368Z,20.14
2023-05-14T21:52:34.654Z,20.15
2023-05-14T21:55:00.854Z,20.14
2023-05-14T21:57:28.371Z,20.13
2023-05-14T21:59:56.019Z,20.12
2023-05-14T22:02:22.432Z,20.13
2023-05-14T22:04:48.700Z,20.12
2023-05-14T22:07:14.984Z,20.12
2023-05-14T22:09:41.353Z,20.11
2023-05-14T22:12:07.626Z,20.11
2023-05-14T22:14:35.567Z,20.11
2023-05-14T22:17:01.839Z,20.12
2023-05-14T22:19:30.224Z,20.10
2023-05-14T22:21:56.447Z,20.10
2023-05-14T22:24:25.690Z,20.11
2023-05-14T22:26:51.940Z,20.11
2023-05-14T22:29:18.186Z,20.09
2023-05-14T22:31:45.849Z,20.09
2023-05-14T22:34:12.154Z,20.09
2023-05-14T22:36:38.544Z,20.08
2023-05-14T22:39:04.871Z,20.08
2023-05-14T22:41:31.839Z,20.08
2023-05-14T22:43:58.153Z,20.08
2023-05-14T22:46:26.857Z,20.08
2023-05-14T22:48:53.406Z,20.08
2023-05-14T22:51:19.602Z,20.07
2023-05-14T22:53:45.804Z,20.07
2023-05-14T22:56:12.002Z,20.07
2023-05-14T22:58:38.252Z,20.07
2023-05-14T23:01:07.479Z,20.06
2023-05-14T23:03:33.719Z,20.07
2023-05-14T23:06:01.609Z,20.07
2023-05-14T23:08:30.855Z,20.05
2023-05-14T23:10:57.068Z,20.05
2023-05-14T23:13:23.281Z,20.05
2023-05-14T23:15:49.656Z,20.04
2023-05-14T23:18:16.040Z,20.05
2023-05-14T23:20:42.355Z,20.05
2023-05-14T23:23:14.663Z,20.05
2023-05-14T23:25:40.893Z,20.04
2023-05-14T23:28:07.779Z,20.04
2023-05-14T23:30:34.083Z,20.04
2023-05-14T23:33:05.324Z,20.04
2023-05-14T23:35:31.603Z,20.04
2023-05-14T23:37:59.171Z,20.03
2023-05-14T23:40:25.974Z,20.03
2023-05-14T23:42:54.172Z,20.03
2023-05-14T23:45:25.166Z,20.02
2023-05-14T23:47:51.741Z,20.03
2023-05-14T23:50:18.143Z,20.03
2023-05-14T23:52:45.502Z,20.03
2023-05-14T23:55:11.774Z,20.03
2023-05-14T23:57:38.001Z,20.03
